APL Coral — WDF6832 — position and weather

sailwx.info

Track history (hours):
 
Tides and Currents Weather Stations Pressure Air Temp Water Temp Dewpoint Dewpoint Depression Visibility Wind Speed Wind Dir Waves Ship Positions

APL Coral

Owner: APL Maritime Ltd., Bethesda, MD. More information available from US FCC via Universal Licensing System and Coast Guard Vessel Documentation Center.

Last reported at 2015-May-27 12:00 UTC. Time now 2015-May-27 23:38 UTC.
Position N 40°54' W 039°24'.

Length 275 m; draft 13.2 m.

Type: Cargo ship. MMSI: 367478280.

Wind from 080 at 5 knots

Waves 1.0 meters (3 feet), 3 second period

Barometer 1036.0 mb
Air temperature 20.0 ° C
Visibility: greater than 10.8 NM
Dewpoint 14.9 ° C
Water temperature 20.0 ° C

Date/timePositionNaut miles runAvg speedWind from/ knotsBaromVisibWave heightAir tempDewpointWater temp
2015-May-27 12:00N 40°54' W 039°24'   080 / 51036.010.8 1.020.014.920.0
2015-May-20 13:06N 34°46' W 075°19'712.6
2015-May-20 12:31N 34°40' W 075°25'2020.1
2015-May-20 11:32N 34°26' W 075°42'4019.2
2015-May-20 09:27N 33°58' W 076°17'17317.5
2015-May-19 23:33N 32°19' W 079°06'1717.0
2015-May-19 22:33N 32°10' W 079°23'1111.4
2015-May-19 21:33N 32°05' W 079°35'9 8.6
2015-May-19 20:33N 32°01' W 079°44'11 8.6
2015-May-19 19:13N 31°59' W 079°57'9 9.0
2015-May-19 18:12N 31°58' W 080°08'6 9.4
2015-May-19 17:33N 31°57' W 080°15'10 9.6
2015-May-19 16:33N 31°57' W 080°27'10 9.6
2015-May-19 15:33N 31°56' W 080°38'1111.0
2015-May-19 14:33N 32°02' W 080°49'1110.5
2015-May-19 13:33N 32°06' W 081°01'5 5.5
2015-May-19 12:33N 32°06' W 081°07'1 1.4
2015-May-19 11:33N 32°07' W 081°08'0 0.0
2015-May-19 10:33N 32°07' W 081°08'0 0.0
2015-May-19 09:33N 32°07' W 081°08'0 0.0
2015-May-19 08:33N 32°07' W 081°08'0 0.0
2015-May-19 07:33N 32°07' W 081°08'0 0.0
2015-May-19 06:33N 32°07' W 081°08'0 0.0
2015-May-19 05:33N 32°07' W 081°08'0 0.0
2015-May-19 04:33N 32°07' W 081°08'0 0.0
2015-May-19 03:33N 32°07' W 081°08'0 0.0
2015-May-19 02:34N 32°07' W 081°08'0 0.0
2015-May-19 01:34N 32°07' W 081°08'0 0.0
2015-May-19 00:33N 32°07' W 081°08'0 0.0
2015-May-18 23:33N 32°07' W 081°08'0 0.0
2015-May-18 22:33N 32°07' W 081°08'0 0.0
2015-May-18 21:34N 32°07' W 081°08'0 0.0
2015-May-18 20:34N 32°07' W 081°08'0 0.0
2015-May-18 19:34N 32°07' W 081°08'0 0.0
2015-May-18 18:34N 32°07' W 081°08'0 0.0
2015-May-18 17:33N 32°07' W 081°08'0 0.0
2015-May-18 16:34N 32°07' W 081°08'0 0.0
2015-May-18 15:34N 32°07' W 081°08'1 1.0
2015-May-18 14:33N 32°07' W 081°07'6 6.0
2015-May-18 13:34N 32°06' W 081°00'1211.9
2015-May-18 12:34N 32°01' W 080°48'1211.5
2015-May-18 11:33N 31°56' W 080°35'1312.8
2015-May-18 10:33N 31°58' W 080°20'1413.7
2015-May-18 09:32N 32°03' W 080°05'  
Track history (hours):
 
Tides and Currents Weather Stations Pressure Air Temp Water Temp Dewpoint Dewpoint Depression Visibility Wind Speed Wind Dir Waves Ship Positions

APL Coral

Owner: APL Maritime Ltd., Bethesda, MD. More information available from US FCC via Universal Licensing System and Coast Guard Vessel Documentation Center.

Last reported at 2015-May-27 12:00 UTC. Time now 2015-May-27 23:38 UTC.
Position N 40°54' W 039°24'.

Length 275 m; draft 13.2 m.

Type: Cargo ship. MMSI: 367478280.

Wind from 080 at 5 knots

Waves 1.0 meters (3 feet), 3 second period

Barometer 1036.0 mb
Air temperature 20.0 ° C
Visibility: greater than 10.8 NM
Dewpoint 14.9 ° C
Water temperature 20.0 ° C

Date/timePositionNaut miles runAvg speedWind from/ knotsBaromVisibWave heightAir tempDewpointWater temp
2015-May-27 12:00N 40°54' W 039°24'   080 / 51036.010.8 1.020.014.920.0
2015-May-20 13:06N 34°46' W 075°19'712.6
2015-May-20 12:31N 34°40' W 075°25'2020.1
2015-May-20 11:32N 34°26' W 075°42'4019.2
2015-May-20 09:27N 33°58' W 076°17'17317.5
2015-May-19 23:33N 32°19' W 079°06'1717.0
2015-May-19 22:33N 32°10' W 079°23'1111.4
2015-May-19 21:33N 32°05' W 079°35'9 8.6
2015-May-19 20:33N 32°01' W 079°44'11 8.6
2015-May-19 19:13N 31°59' W 079°57'9 9.0
2015-May-19 18:12N 31°58' W 080°08'6 9.4
2015-May-19 17:33N 31°57' W 080°15'10 9.6
2015-May-19 16:33N 31°57' W 080°27'10 9.6
2015-May-19 15:33N 31°56' W 080°38'1111.0
2015-May-19 14:33N 32°02' W 080°49'1110.5
2015-May-19 13:33N 32°06' W 081°01'5 5.5
2015-May-19 12:33N 32°06' W 081°07'1 1.4
2015-May-19 11:33N 32°07' W 081°08'0 0.0
2015-May-19 10:33N 32°07' W 081°08'0 0.0
2015-May-19 09:33N 32°07' W 081°08'0 0.0
2015-May-19 08:33N 32°07' W 081°08'0 0.0
2015-May-19 07:33N 32°07' W 081°08'0 0.0
2015-May-19 06:33N 32°07' W 081°08'0 0.0
2015-May-19 05:33N 32°07' W 081°08'0 0.0
2015-May-19 04:33N 32°07' W 081°08'0 0.0
2015-May-19 03:33N 32°07' W 081°08'0 0.0
2015-May-19 02:34N 32°07' W 081°08'0 0.0
2015-May-19 01:34N 32°07' W 081°08'0 0.0
2015-May-19 00:33N 32°07' W 081°08'0 0.0
2015-May-18 23:33N 32°07' W 081°08'0 0.0
2015-May-18 22:33N 32°07' W 081°08'0 0.0
2015-May-18 21:34N 32°07' W 081°08'0 0.0
2015-May-18 20:34N 32°07' W 081°08'0 0.0
2015-May-18 19:34N 32°07' W 081°08'0 0.0
2015-May-18 18:34N 32°07' W 081°08'0 0.0
2015-May-18 17:33N 32°07' W 081°08'0 0.0
2015-May-18 16:34N 32°07' W 081°08'0 0.0
2015-May-18 15:34N 32°07' W 081°08'1 1.0
2015-May-18 14:33N 32°07' W 081°07'6 6.0
2015-May-18 13:34N 32°06' W 081°00'1211.9
2015-May-18 12:34N 32°01' W 080°48'1211.5
2015-May-18 11:33N 31°56' W 080°35'1312.8
2015-May-18 10:33N 31°58' W 080°20'1413.7
2015-May-18 09:32N 32°03' W 080°05'  

Dump ship's entire track history